sensor_id;sensor_type;location;lat;lon;timestamp;pressure;altitude;pressure_sealevel;temperature;humidity
41624;BME280;27319;50.306;18.926;2023-05-24T00:00:50;97882.28;;;17.98;87.62
41624;BME280;27319;50.306;18.926;2023-05-24T00:03:59;97877.81;;;17.79;89.04
41624;BME280;27319;50.306;18.926;2023-05-24T00:07:01;97884.53;;;18.01;86.41
41624;BME280;27319;50.306;18.926;2023-05-24T00:10:05;97886.91;;;17.91;87.57
41624;BME280;27319;50.306;18.926;2023-05-24T00:13:26;97889.78;;;17.96;87.21
41624;BME280;27319;50.306;18.926;2023-05-24T00:17:03;97881.22;;;17.74;89.78
41624;BME280;27319;50.306;18.926;2023-05-24T00:20:05;97889.09;;;17.58;91.16
41624;BME280;27319;50.306;18.926;2023-05-24T00:23:07;97885.66;;;17.69;90.47
41624;BME280;27319;50.306;18.926;2023-05-24T00:26:09;97879.59;;;17.67;90.44
41624;BME280;27319;50.306;18.926;2023-05-24T00:29:10;97895.91;;;17.67;90.60
41624;BME280;27319;50.306;18.926;2023-05-24T00:32:31;97884.94;;;17.80;88.42
41624;BME280;27319;50.306;18.926;2023-05-24T00:36:32;97893.94;;;17.74;89.46
41624;BME280;27319;50.306;18.926;2023-05-24T00:40:13;97887.97;;;17.65;88.88
41624;BME280;27319;50.306;18.926;2023-05-24T00:43:14;97890.50;;;17.85;87.41
41624;BME280;27319;50.306;18.926;2023-05-24T00:49:16;97899.09;;;17.57;89.31
41624;BME280;27319;50.306;18.926;2023-05-24T00:52:37;97904.75;;;17.56;88.53
41624;BME280;27319;50.306;18.926;2023-05-24T00:56:38;97897.88;;;17.53;88.39
41624;BME280;27319;50.306;18.926;2023-05-24T01:00:39;97913.13;;;17.54;88.71
41624;BME280;27319;50.306;18.926;2023-05-24T01:04:40;97907.78;;;17.41;89.04
41624;BME280;27319;50.306;18.926;2023-05-24T01:08:43;97910.34;;;17.30;89.44
41624;BME280;27319;50.306;18.926;2023-05-24T01:15:36;97907.75;;;17.48;87.88
41624;BME280;27319;50.306;18.926;2023-05-24T01:18:46;97912.00;;;17.31;88.92
41624;BME280;27319;50.306;18.926;2023-05-24T01:22:23;97915.22;;;17.52;87.30
41624;BME280;27319;50.306;18.926;2023-05-24T01:25:59;97921.13;;;17.43;88.01
41624;BME280;27319;50.306;18.926;2023-05-24T01:29:21;97913.72;;;17.56;87.09
41624;BME280;27319;50.306;18.926;2023-05-24T01:33:22;97916.09;;;17.46;87.26
41624;BME280;27319;50.306;18.926;2023-05-24T01:37:23;97917.81;;;17.41;87.68
41624;BME280;27319;50.306;18.926;2023-05-24T01:41:15;97920.41;;;17.23;88.57
41624;BME280;27319;50.306;18.926;2023-05-24T01:49:08;97928.44;;;16.98;90.03
41624;BME280;27319;50.306;18.926;2023-05-24T01:53:08;97932.16;;;17.04;89.36
41624;BME280;27319;50.306;18.926;2023-05-24T01:56:51;97929.22;;;17.12;88.26
41624;BME280;27319;50.306;18.926;2023-05-24T02:00:13;97930.69;;;17.08;88.71
41624;BME280;27319;50.306;18.926;2023-05-24T02:03:54;97940.94;;;17.06;88.56
41624;BME280;27319;50.306;18.926;2023-05-24T02:06:55;97944.06;;;17.03;88.57
41624;BME280;27319;50.306;18.926;2023-05-24T02:09:56;97936.97;;;17.02;88.70
41624;BME280;27319;50.306;18.926;2023-05-24T02:13:17;97944.31;;;16.95;88.87
41624;BME280;27319;50.306;18.926;2023-05-24T02:17:18;97941.81;;;16.93;89.17
41624;BME280;27319;50.306;18.926;2023-05-24T02:21:19;97938.50;;;16.85;89.07
41624;BME280;27319;50.306;18.926;2023-05-24T02:25:20;97949.69;;;17.01;88.22
41624;BME280;27319;50.306;18.926;2023-05-24T02:29:01;97955.47;;;17.18;87.62
41624;BME280;27319;50.306;18.926;2023-05-24T02:32:02;97953.00;;;17.10;87.94
41624;BME280;27319;50.306;18.926;2023-05-24T02:35:06;97955.97;;;17.02;88.23
41624;BME280;27319;50.306;18.926;2023-05-24T02:38:07;97952.41;;;17.01;88.33
41624;BME280;27319;50.306;18.926;2023-05-24T02:41:09;97956.22;;;16.94;88.38
41624;BME280;27319;50.306;18.926;2023-05-24T02:44:53;97948.09;;;16.94;88.34
41624;BME280;27319;50.306;18.926;2023-05-24T02:48:38;97947.31;;;16.80;89.46
41624;BME280;27319;50.306;18.926;2023-05-24T02:51:39;97939.75;;;16.89;88.49
41624;BME280;27319;50.306;18.926;2023-05-24T02:54:57;97953.13;;;16.77;89.13
41624;BME280;27319;50.306;18.926;2023-05-24T02:58:31;97954.13;;;16.96;88.17
41624;BME280;27319;50.306;18.926;2023-05-24T03:02:32;97961.91;;;16.79;88.61
41624;BME280;27319;50.306;18.926;2023-05-24T03:06:13;97958.75;;;16.82;88.75
41624;BME280;27319;50.306;18.926;2023-05-24T03:09:14;97954.38;;;16.81;88.47
41624;BME280;27319;50.306;18.926;2023-05-24T03:12:37;97966.53;;;16.66;89.68
41624;BME280;27319;50.306;18.926;2023-05-24T03:16:40;97961.50;;;16.69;89.12
41624;BME280;27319;50.306;18.926;2023-05-24T03:20:41;97975.00;;;16.82;88.49
41624;BME280;27319;50.306;18.926;2023-05-24T03:24:43;97971.47;;;16.82;88.08
41624;BME280;27319;50.306;18.926;2023-05-24T03:28:24;97968.09;;;16.93;87.53
41624;BME280;27319;50.306;18.926;2023-05-24T03:31:25;97973.28;;;17.01;87.02
41624;BME280;27319;50.306;18.926;2023-05-24T03:34:26;97968.66;;;17.01;86.81
41624;BME280;27319;50.306;18.926;2023-05-24T03:37:27;97978.97;;;16.80;88.59
41624;BME280;27319;50.306;18.926;2023-05-24T03:40:28;97977.31;;;16.79;88.61
41624;BME280;27319;50.306;18.926;2023-05-24T03:43:31;97990.41;;;16.95;87.19
41624;BME280;27319;50.306;18.926;2023-05-24T03:46:33;97983.75;;;16.91;87.87
41624;BME280;27319;50.306;18.926;2023-05-24T03:49:33;97982.34;;;16.69;88.84
41624;BME280;27319;50.306;18.926;2023-05-24T03:52:35;97973.16;;;16.83;88.35
41624;BME280;27319;50.306;18.926;2023-05-24T03:55:56;97992.53;;;16.80;87.94
41624;BME280;27319;50.306;18.926;2023-05-24T03:59:17;97986.03;;;16.94;87.13
41624;BME280;27319;50.306;18.926;2023-05-24T04:02:18;97981.91;;;16.78;88.25
41624;BME280;27319;50.306;18.926;2023-05-24T04:05:19;97982.78;;;16.66;89.49
41624;BME280;27319;50.306;18.926;2023-05-24T04:08:40;97991.97;;;16.52;89.88
41624;BME280;27319;50.306;18.926;2023-05-24T04:12:41;97998.66;;;16.56;89.98
41624;BME280;27319;50.306;18.926;2023-05-24T04:16:17;98004.09;;;16.43;90.20
41624;BME280;27319;50.306;18.926;2023-05-24T04:19:18;98014.69;;;16.38;89.91
41624;BME280;27319;50.306;18.926;2023-05-24T04:22:19;98012.81;;;16.32;89.81
41624;BME280;27319;50.306;18.926;2023-05-24T04:25:20;98017.81;;;16.09;89.87
41624;BME280;27319;50.306;18.926;2023-05-24T04:28:22;98030.53;;;16.02;90.49
41624;BME280;27319;50.306;18.926;2023-05-24T04:31:23;98030.91;;;15.92;90.52
41624;BME280;27319;50.306;18.926;2023-05-24T04:34:27;98043.19;;;15.95;89.63
41624;BME280;27319;50.306;18.926;2023-05-24T04:37:29;98044.06;;;16.08;88.04
41624;BME280;27319;50.306;18.926;2023-05-24T04:40:31;98038.34;;;15.45;91.05
41624;BME280;27319;50.306;18.926;2023-05-24T04:43:52;98047.06;;;15.47;90.94
41624;BME280;27319;50.306;18.926;2023-05-24T04:47:33;98052.94;;;15.57;90.17
41624;BME280;27319;50.306;18.926;2023-05-24T04:50:54;98052.94;;;15.63;89.97
41624;BME280;27319;50.306;18.926;2023-05-24T04:54:11;98057.16;;;15.79;89.17
41624;BME280;27319;50.306;18.926;2023-05-24T04:57:31;98056.38;;;15.38;90.63
41624;BME280;27319;50.306;18.926;2023-05-24T05:01:32;98054.78;;;15.50;89.52
41624;BME280;27319;50.306;18.926;2023-05-24T05:05:33;98068.97;;;15.18;89.45
41624;BME280;27319;50.306;18.926;2023-05-24T05:09:34;98069.50;;;15.00;89.36
41624;BME280;27319;50.306;18.926;2023-05-24T05:12:55;98084.19;;;15.32;88.72
41624;BME280;27319;50.306;18.926;2023-05-24T05:16:56;98084.47;;;14.96;89.81
41624;BME280;27319;50.306;18.926;2023-05-24T05:20:57;98092.34;;;14.98;89.69
41624;BME280;27319;50.306;18.926;2023-05-24T05:24:59;98096.00;;;15.18;89.71
41624;BME280;27319;50.306;18.926;2023-05-24T05:29:01;98111.81;;;15.21;88.57
41624;BME280;27319;50.306;18.926;2023-05-24T05:32:58;98115.53;;;15.13;88.96
41624;BME280;27319;50.306;18.926;2023-05-24T05:36:58;98119.72;;;14.88;90.11
41624;BME280;27319;50.306;18.926;2023-05-24T05:40:59;98127.91;;;14.95;88.68
41624;BME280;27319;50.306;18.926;2023-05-24T05:45:00;98131.44;;;14.68;89.55
41624;BME280;27319;50.306;18.926;2023-05-24T05:49:05;98145.59;;;14.97;88.25
41624;BME280;27319;50.306;18.926;2023-05-24T05:53:06;98144.22;;;14.80;88.97
41624;BME280;27319;50.306;18.926;2023-05-24T05:57:07;98155.81;;;14.74;88.84
41624;BME280;27319;50.306;18.926;2023-05-24T06:01:08;98160.50;;;14.38;89.53
41624;BME280;27319;50.306;18.926;2023-05-24T06:04:49;98165.75;;;14.25;88.83
41624;BME280;27319;50.306;18.926;2023-05-24T06:07:50;98170.00;;;13.99;89.96
41624;BME280;27319;50.306;18.926;2023-05-24T06:11:11;98168.41;;;14.19;89.27
41624;BME280;27319;50.306;18.926;2023-05-24T06:14:48;98170.47;;;14.02;89.90
41624;BME280;27319;50.306;18.926;2023-05-24T06:17:50;98178.47;;;14.10;89.39
41624;BME280;27319;50.306;18.926;2023-05-24T06:20:53;98177.91;;;14.00;89.59
41624;BME280;27319;50.306;18.926;2023-05-24T06:23:54;98183.72;;;14.18;89.08
41624;BME280;27319;50.306;18.926;2023-05-24T06:26:58;98188.28;;;14.32;89.00
41624;BME280;27319;50.306;18.926;2023-05-24T06:30:00;98194.59;;;14.46;87.79
41624;BME280;27319;50.306;18.926;2023-05-24T06:33:01;98197.03;;;14.62;87.26
41624;BME280;27319;50.306;18.926;2023-05-24T06:36:22;98196.06;;;14.42;87.68
41624;BME280;27319;50.306;18.926;2023-05-24T06:40:23;98203.44;;;13.98;89.07
41624;BME280;27319;50.306;18.926;2023-05-24T06:44:24;98212.50;;;14.26;88.77
41624;BME280;27319;50.306;18.926;2023-05-24T06:48:09;98213.41;;;13.97;89.31
41624;BME280;27319;50.306;18.926;2023-05-24T06:51:30;98215.72;;;14.36;88.53
41624;BME280;27319;50.306;18.926;2023-05-24T06:55:31;98224.22;;;14.54;86.42
41624;BME280;27319;50.306;18.926;2023-05-24T06:59:08;98228.06;;;14.24;87.57
41624;BME280;27319;50.306;18.926;2023-05-24T07:02:28;98229.22;;;14.36;87.39
41624;BME280;27319;50.306;18.926;2023-05-24T07:06:29;98240.13;;;14.28;87.53
41624;BME280;27319;50.306;18.926;2023-05-24T07:10:29;98237.47;;;13.99;88.55
41624;BME280;27319;50.306;18.926;2023-05-24T07:14:30;98238.94;;;14.16;87.74
41624;BME280;27319;50.306;18.926;2023-05-24T07:18:12;98242.19;;;14.26;87.23
41624;BME280;27319;50.306;18.926;2023-05-24T07:21:33;98253.34;;;14.23;87.61
41624;BME280;27319;50.306;18.926;2023-05-24T07:24:54;98257.56;;;14.46;86.75
41624;BME280;27319;50.306;18.926;2023-05-24T07:28:15;98257.00;;;14.51;86.58
41624;BME280;27319;50.306;18.926;2023-05-24T07:32:16;98257.25;;;14.56;86.05
41624;BME280;27319;50.306;18.926;2023-05-24T07:35:57;98268.56;;;14.66;85.25
41624;BME280;27319;50.306;18.926;2023-05-24T07:38:58;98267.22;;;14.76;84.65
41624;BME280;27319;50.306;18.926;2023-05-24T07:42:02;98276.94;;;14.50;85.66
41624;BME280;27319;50.306;18.926;2023-05-24T07:45:05;98279.53;;;14.58;85.34
41624;BME280;27319;50.306;18.926;2023-05-24T07:48:26;98285.16;;;14.63;84.84
41624;BME280;27319;50.306;18.926;2023-05-24T07:52:24;98287.38;;;14.53;84.75
41624;BME280;27319;50.306;18.926;2023-05-24T07:56:05;98284.09;;;14.22;85.93
41624;BME280;27319;50.306;18.926;2023-05-24T07:59:27;98294.56;;;14.17;86.30
41624;BME280;27319;50.306;18.926;2023-05-24T08:03:08;98301.09;;;14.37;85.51
41624;BME280;27319;50.306;18.926;2023-05-24T08:06:12;98305.13;;;14.26;86.00
41624;BME280;27319;50.306;18.926;2023-05-24T08:09:13;98305.88;;;14.35;86.00
41624;BME280;27319;50.306;18.926;2023-05-24T08:12:14;98299.47;;;14.21;85.76
41624;BME280;27319;50.306;18.926;2023-05-24T08:15:36;98301.84;;;14.16;86.36
41624;BME280;27319;50.306;18.926;2023-05-24T08:19:37;98302.16;;;14.07;86.61
41624;BME280;27319;50.306;18.926;2023-05-24T08:23:38;98309.59;;;14.05;86.64
41624;BME280;27319;50.306;18.926;2023-05-24T08:27:39;98315.75;;;13.70;87.24
41624;BME280;27319;50.306;18.926;2023-05-24T08:31:40;98318.25;;;14.00;85.64
41624;BME280;27319;50.306;18.926;2023-05-24T08:35:41;98330.53;;;13.59;87.58
41624;BME280;27319;50.306;18.926;2023-05-24T08:39:42;98327.97;;;13.80;86.22
41624;BME280;27319;50.306;18.926;2023-05-24T08:43:43;98331.94;;;13.99;85.80
41624;BME280;27319;50.306;18.926;2023-05-24T08:47:44;98340.78;;;13.93;85.69
41624;BME280;27319;50.306;18.926;2023-05-24T08:51:44;98342.34;;;13.58;87.16
41624;BME280;27319;50.306;18.926;2023-05-24T08:55:45;98350.75;;;13.78;85.92
41624;BME280;27319;50.306;18.926;2023-05-24T08:59:46;98354.81;;;13.74;86.93
41624;BME280;27319;50.306;18.926;2023-05-24T09:03:47;98348.50;;;13.96;84.94
41624;BME280;27319;50.306;18.926;2023-05-24T09:07:48;98363.19;;;13.79;85.66
41624;BME280;27319;50.306;18.926;2023-05-24T09:11:50;98374.91;;;13.57;86.39
41624;BME280;27319;50.306;18.926;2023-05-24T09:15:51;98380.69;;;13.83;85.88
41624;BME280;27319;50.306;18.926;2023-05-24T09:19:51;98397.53;;;13.85;85.76
41624;BME280;27319;50.306;18.926;2023-05-24T09:23:53;98393.34;;;13.97;84.55
41624;BME280;27319;50.306;18.926;2023-05-24T09:27:54;98394.56;;;14.09;83.43
41624;BME280;27319;50.306;18.926;2023-05-24T09:31:55;98399.97;;;14.09;83.82
41624;BME280;27319;50.306;18.926;2023-05-24T09:35:59;98406.56;;;14.06;82.68
41624;BME280;27319;50.306;18.926;2023-05-24T09:39:59;98404.44;;;14.16;82.86
41624;BME280;27319;50.306;18.926;2023-05-24T09:44:07;98399.53;;;14.34;82.73
41624;BME280;27319;50.306;18.926;2023-05-24T09:48:09;98405.56;;;14.36;81.87
41624;BME280;27319;50.306;18.926;2023-05-24T09:52:12;98411.59;;;14.53;81.35
41624;BME280;27319;50.306;18.926;2023-05-24T09:56:13;98416.06;;;14.46;81.48
41624;BME280;27319;50.306;18.926;2023-05-24T10:00:14;98415.44;;;14.29;82.08
41624;BME280;27319;50.306;18.926;2023-05-24T10:04:15;98415.78;;;14.55;81.42
41624;BME280;27319;50.306;18.926;2023-05-24T10:08:04;98415.06;;;14.47;81.25
41624;BME280;27319;50.306;18.926;2023-05-24T10:11:05;98413.72;;;14.57;81.44
41624;BME280;27319;50.306;18.926;2023-05-24T10:14:08;98424.63;;;14.64;81.40
41624;BME280;27319;50.306;18.926;2023-05-24T10:17:09;98425.81;;;14.76;80.55
41624;BME280;27319;50.306;18.926;2023-05-24T10:20:34;98417.38;;;14.50;80.83
41624;BME280;27319;50.306;18.926;2023-05-24T10:24:18;98426.47;;;14.63;79.66
41624;BME280;27319;50.306;18.926;2023-05-24T10:27:26;98432.47;;;14.59;80.34
41624;BME280;27319;50.306;18.926;2023-05-24T10:33:55;98421.19;;;14.55;80.52
41624;BME280;27319;50.306;18.926;2023-05-24T10:36:58;98429.47;;;14.54;81.46
41624;BME280;27319;50.306;18.926;2023-05-24T10:40:20;98428.16;;;14.64;79.85
41624;BME280;27319;50.306;18.926;2023-05-24T10:44:20;98435.97;;;14.59;80.47
41624;BME280;27319;50.306;18.926;2023-05-24T10:52:09;98431.09;;;14.84;79.68
41624;BME280;27319;50.306;18.926;2023-05-24T10:56:02;98434.75;;;15.12;78.85
41624;BME280;27319;50.306;18.926;2023-05-24T10:59:08;98435.50;;;15.06;78.93
41624;BME280;27319;50.306;18.926;2023-05-24T11:02:18;98436.59;;;14.90;79.45
41624;BME280;27319;50.306;18.926;2023-05-24T11:05:19;98441.28;;;14.82;80.07
41624;BME280;27319;50.306;18.926;2023-05-24T11:08:30;98433.13;;;14.96;79.41
41624;BME280;27319;50.306;18.926;2023-05-24T11:11:48;98441.16;;;14.90;80.21
41624;BME280;27319;50.306;18.926;2023-05-24T11:15:02;98438.63;;;14.88;79.45
41624;BME280;27319;50.306;18.926;2023-05-24T11:18:32;98445.09;;;14.73;79.72
41624;BME280;27319;50.306;18.926;2023-05-24T11:22:33;98434.44;;;14.86;81.25
41624;BME280;27319;50.306;18.926;2023-05-24T11:26:34;98447.94;;;14.86;79.33
41624;BME280;27319;50.306;18.926;2023-05-24T11:30:44;98439.22;;;14.84;80.00
41624;BME280;27319;50.306;18.926;2023-05-24T11:34:42;98443.94;;;14.96;79.03
41624;BME280;27319;50.306;18.926;2023-05-24T11:38:45;98442.19;;;14.89;78.77
41624;BME280;27319;50.306;18.926;2023-05-24T11:42:45;98444.31;;;14.93;78.71
41624;BME280;27319;50.306;18.926;2023-05-24T11:46:25;98437.63;;;14.89;79.15
41624;BME280;27319;50.306;18.926;2023-05-24T11:49:27;98441.16;;;14.90;80.67
41624;BME280;27319;50.306;18.926;2023-05-24T11:52:28;98442.56;;;14.71;80.67
41624;BME280;27319;50.306;18.926;2023-05-24T11:55:29;98442.56;;;14.71;80.22
41624;BME280;27319;50.306;18.926;2023-05-24T11:59:02;98438.91;;;14.58;81.09
41624;BME280;27319;50.306;18.926;2023-05-24T12:02:07;98440.63;;;14.65;82.61
41624;BME280;27319;50.306;18.926;2023-05-24T12:05:09;98437.25;;;14.78;80.08
41624;BME280;27319;50.306;18.926;2023-05-24T12:08:12;98433.88;;;14.90;79.83
41624;BME280;27319;50.306;18.926;2023-05-24T12:11:17;98440.28;;;15.04;78.92
41624;BME280;27319;50.306;18.926;2023-05-24T12:14:38;98441.53;;;14.87;80.48
41624;BME280;27319;50.306;18.926;2023-05-24T12:18:17;98443.44;;;15.07;79.37
41624;BME280;27319;50.306;18.926;2023-05-24T12:21:30;98447.41;;;15.11;79.62
41624;BME280;27319;50.306;18.926;2023-05-24T12:24:52;98442.72;;;14.99;79.75
41624;BME280;27319;50.306;18.926;2023-05-24T12:28:54;98438.09;;;15.14;78.93
41624;BME280;27319;50.306;18.926;2023-05-24T12:32:56;98445.94;;;15.09;79.67
41624;BME280;27319;50.306;18.926;2023-05-24T12:36:40;98443.06;;;15.31;78.56
41624;BME280;27319;50.306;18.926;2023-05-24T12:40:41;98443.84;;;15.25;79.84
41624;BME280;27319;50.306;18.926;2023-05-24T12:44:36;98448.44;;;15.46;78.92
41624;BME280;27319;50.306;18.926;2023-05-24T12:47:39;98448.63;;;15.44;78.40
41624;BME280;27319;50.306;18.926;2023-05-24T12:50:41;98452.97;;;15.39;78.26
41624;BME280;27319;50.306;18.926;2023-05-24T12:54:06;98451.78;;;15.27;78.18
41624;BME280;27319;50.306;18.926;2023-05-24T12:58:07;98452.06;;;15.17;78.48
41624;BME280;27319;50.306;18.926;2023-05-24T13:02:08;98450.44;;;15.02;80.25
41624;BME280;27319;50.306;18.926;2023-05-24T13:05:34;98446.53;;;15.25;78.45
41624;BME280;27319;50.306;18.926;2023-05-24T13:08:54;98451.09;;;15.25;78.25
41624;BME280;27319;50.306;18.926;2023-05-24T13:12:56;98455.69;;;15.24;77.86
41624;BME280;27319;50.306;18.926;2023-05-24T13:16:57;98446.09;;;15.22;79.29
41624;BME280;27319;50.306;18.926;2023-05-24T13:20:58;98445.09;;;15.29;78.77
41624;BME280;27319;50.306;18.926;2023-05-24T13:24:39;98449.88;;;15.27;78.34
41624;BME280;27319;50.306;18.926;2023-05-24T13:28:00;98450.88;;;15.41;78.13
41624;BME280;27319;50.306;18.926;2023-05-24T13:32:01;98444.66;;;15.26;78.58
41624;BME280;27319;50.306;18.926;2023-05-24T13:35:43;98440.28;;;15.25;77.87
41624;BME280;27319;50.306;18.926;2023-05-24T13:38:44;98442.53;;;15.21;78.16
41624;BME280;27319;50.306;18.926;2023-05-24T13:42:05;98449.88;;;15.27;78.61
41624;BME280;27319;50.306;18.926;2023-05-24T13:46:06;98446.91;;;15.22;78.72
41624;BME280;27319;50.306;18.926;2023-05-24T13:49:29;98447.63;;;15.31;77.84
41624;BME280;27319;50.306;18.926;2023-05-24T13:52:49;98447.19;;;15.27;79.15
41624;BME280;27319;50.306;18.926;2023-05-24T13:56:32;98457.06;;;15.35;78.63
41624;BME280;27319;50.306;18.926;2023-05-24T13:59:53;98450.78;;;15.13;78.77
41624;BME280;27319;50.306;18.926;2023-05-24T14:03:35;98451.88;;;15.19;78.49
41624;BME280;27319;50.306;18.926;2023-05-24T14:06:36;98456.19;;;15.13;78.74
41624;BME280;27319;50.306;18.926;2023-05-24T14:09:58;98450.53;;;15.08;78.60
41624;BME280;27319;50.306;18.926;2023-05-24T14:13:19;98452.94;;;15.03;78.69
41624;BME280;27319;50.306;18.926;2023-05-24T14:16:41;98459.69;;;14.93;78.99
41624;BME280;27319;50.306;18.926;2023-05-24T14:20:42;98452.03;;;14.96;78.75
41624;BME280;27319;50.306;18.926;2023-05-24T14:24:23;98448.63;;;14.88;80.41
41624;BME280;27319;50.306;18.926;2023-05-24T14:27:25;98451.50;;;14.86;79.69
41624;BME280;27319;50.306;18.926;2023-05-24T14:30:46;98460.09;;;14.75;80.26
41624;BME280;27319;50.306;18.926;2023-05-24T14:34:08;98453.13;;;14.81;80.19
41624;BME280;27319;50.306;18.926;2023-05-24T14:37:30;98459.69;;;14.93;79.51
41624;BME280;27319;50.306;18.926;2023-05-24T14:41:14;98451.28;;;15.02;79.67
41624;BME280;27319;50.306;18.926;2023-05-24T14:45:15;98447.47;;;14.97;78.95
41624;BME280;27319;50.306;18.926;2023-05-24T14:49:15;98444.00;;;15.03;78.48
41624;BME280;27319;50.306;18.926;2023-05-24T14:52:45;98446.06;;;15.01;79.34
41624;BME280;27319;50.306;18.926;2023-05-24T14:55:46;98446.19;;;14.93;79.23
41624;BME280;27319;50.306;18.926;2023-05-24T14:58:49;98451.78;;;14.91;79.68
41624;BME280;27319;50.306;18.926;2023-05-24T15:02:10;98453.25;;;14.94;79.37
41624;BME280;27319;50.306;18.926;2023-05-24T15:06:03;98444.38;;;15.00;79.32
41624;BME280;27319;50.306;18.926;2023-05-24T15:10:03;98447.47;;;14.97;78.93
41624;BME280;27319;50.306;18.926;2023-05-24T15:14:05;98449.97;;;14.98;79.42
41624;BME280;27319;50.306;18.926;2023-05-24T15:18:05;98448.13;;;14.99;79.00
41624;BME280;27319;50.306;18.926;2023-05-24T15:22:07;98450.97;;;14.76;80.23
41624;BME280;27319;50.306;18.926;2023-05-24T15:25:29;98456.06;;;14.86;80.41
41624;BME280;27319;50.306;18.926;2023-05-24T15:28:50;98461.22;;;14.81;80.36
41624;BME280;27319;50.306;18.926;2023-05-24T15:32:16;98469.97;;;14.83;79.95
41624;BME280;27319;50.306;18.926;2023-05-24T15:35:36;98457.94;;;14.85;80.09
41624;BME280;27319;50.306;18.926;2023-05-24T15:39:37;98467.25;;;14.83;80.50
41624;BME280;27319;50.306;18.926;2023-05-24T15:43:01;98463.69;;;14.97;79.60
41624;BME280;27319;50.306;18.926;2023-05-24T15:47:03;98474.22;;;14.92;79.93
41624;BME280;27319;50.306;18.926;2023-05-24T15:50:44;98481.56;;;14.98;80.69
41624;BME280;27319;50.306;18.926;2023-05-24T15:54:05;98485.13;;;14.98;79.84
41624;BME280;27319;50.306;18.926;2023-05-24T15:57:46;98489.88;;;14.96;79.33
41624;BME280;27319;50.306;18.926;2023-05-24T16:01:07;98487.19;;;14.96;79.64
41624;BME280;27319;50.306;18.926;2023-05-24T16:04:49;98482.09;;;14.87;79.85
41624;BME280;27319;50.306;18.926;2023-05-24T16:08:09;98484.22;;;14.91;79.72
41624;BME280;27319;50.306;18.926;2023-05-24T16:12:07;98481.69;;;14.90;80.40
41624;BME280;27319;50.306;18.926;2023-05-24T16:15:08;98481.03;;;14.88;79.73
41624;BME280;27319;50.306;18.926;2023-05-24T16:18:13;98485.53;;;14.81;80.76
41624;BME280;27319;50.306;18.926;2023-05-24T16:21:33;98483.84;;;14.80;79.62
41624;BME280;27319;50.306;18.926;2023-05-24T16:24:54;98488.13;;;14.89;79.81
41624;BME280;27319;50.306;18.926;2023-05-24T16:28:35;98479.16;;;14.88;80.09
41624;BME280;27319;50.306;18.926;2023-05-24T16:31:57;98490.19;;;14.87;79.85
41624;BME280;27319;50.306;18.926;2023-05-24T16:35:38;98491.19;;;14.86;80.29
41624;BME280;27319;50.306;18.926;2023-05-24T16:38:59;98491.50;;;14.76;80.06
41624;BME280;27319;50.306;18.926;2023-05-24T16:42:44;98502.13;;;14.78;79.90
41624;BME280;27319;50.306;18.926;2023-05-24T16:46:46;98500.44;;;14.77;79.72
41624;BME280;27319;50.306;18.926;2023-05-24T16:50:47;98511.72;;;14.66;80.36
41624;BME280;27319;50.306;18.926;2023-05-24T16:54:48;98505.75;;;14.70;80.54
41624;BME280;27319;50.306;18.926;2023-05-24T16:58:49;98515.81;;;14.76;80.07
41624;BME280;27319;50.306;18.926;2023-05-24T17:02:14;98513.78;;;14.78;81.01
41624;BME280;27319;50.306;18.926;2023-05-24T17:05:55;98517.78;;;14.68;80.33
41624;BME280;27319;50.306;18.926;2023-05-24T17:09:36;98527.84;;;14.59;80.57
41624;BME280;27319;50.306;18.926;2023-05-24T17:12:57;98524.31;;;14.59;80.91
41624;BME280;27319;50.306;18.926;2023-05-24T17:16:58;98534.09;;;14.60;80.65
41624;BME280;27319;50.306;18.926;2023-05-24T17:21:00;98528.97;;;14.50;80.85
41624;BME280;27319;50.306;18.926;2023-05-24T17:24:23;98540.59;;;14.65;80.77
41624;BME280;27319;50.306;18.926;2023-05-24T17:27:42;98546.75;;;14.59;80.85
41624;BME280;27319;50.306;18.926;2023-05-24T17:31:06;98533.91;;;14.61;80.34
41624;BME280;27319;50.306;18.926;2023-05-24T17:35:05;98545.63;;;14.54;81.16
41624;BME280;27319;50.306;18.926;2023-05-24T17:39:06;98544.94;;;14.37;81.65
41624;BME280;27319;50.306;18.926;2023-05-24T17:43:07;98554.56;;;14.54;80.98
41624;BME280;27319;50.306;18.926;2023-05-24T17:47:09;98551.03;;;14.54;80.96
41624;BME280;27319;50.306;18.926;2023-05-24T17:51:10;98551.03;;;14.54;81.21
41624;BME280;27319;50.306;18.926;2023-05-24T17:54:52;98548.69;;;14.51;81.36
41624;BME280;27319;50.306;18.926;2023-05-24T17:58:12;98551.59;;;14.49;81.59
41624;BME280;27319;50.306;18.926;2023-05-24T18:02:14;98551.69;;;14.56;81.44
41624;BME280;27319;50.306;18.926;2023-05-24T18:05:56;98556.25;;;14.55;81.18
41624;BME280;27319;50.306;18.926;2023-05-24T18:09:57;98572.19;;;14.65;80.75
41624;BME280;27319;50.306;18.926;2023-05-24T18:13:18;98578.69;;;14.70;80.60
41624;BME280;27319;50.306;18.926;2023-05-24T18:17:19;98577.75;;;14.49;81.78
41624;BME280;27319;50.306;18.926;2023-05-24T18:21:20;98584.56;;;14.59;81.22
41624;BME280;27319;50.306;18.926;2023-05-24T18:25:21;98582.06;;;14.58;81.16
41624;BME280;27319;50.306;18.926;2023-05-24T18:29:22;98584.00;;;14.49;81.70
41624;BME280;27319;50.306;18.926;2023-05-24T18:33:24;98591.44;;;14.47;81.66
41624;BME280;27319;50.306;18.926;2023-05-24T18:37:05;98598.00;;;14.53;81.56
41624;BME280;27319;50.306;18.926;2023-05-24T18:40:26;98602.34;;;14.54;80.96
41624;BME280;27319;50.306;18.926;2023-05-24T18:44:27;98598.53;;;14.63;80.23
41624;BME280;27319;50.306;18.926;2023-05-24T18:48:32;98602.56;;;14.67;80.87
41624;BME280;27319;50.306;18.926;2023-05-24T18:52:33;98607.00;;;14.45;81.45
41624;BME280;27319;50.306;18.926;2023-05-24T18:56:42;98615.84;;;14.39;81.89
41624;BME280;27319;50.306;18.926;2023-05-24T19:00:43;98619.38;;;14.40;82.01